Time;durP1;ratioP1;P1;durP2;ratioP2;P2;SDS_P1;SDS_P2;PMS_P1;PMS_P2;Temp;Humidity;BMP_temperature;BMP_pressure;BME280_temperature;BME280_humidity;BME280_pressure;Samples;Min_cycle;Max_cycle;Signal;HPM_P1;HPM_P2
2022/06/30 00:01:40;;;;;;;5.70;3.13;;;20.20;99.90;;;;;;5046768;28;20520;-52
2022/06/30 00:04:06;;;;;;;2.80;2.20;;;20.20;99.90;;;;;;5050490;28;20470;-52
2022/06/30 00:06:33;;;;;;;6.97;2.70;;;20.10;99.90;;;;;;5046165;28;20513;-51
2022/06/30 00:09:00;;;;;;;6.83;2.83;;;20.10;99.90;;;;;;5050220;28;20450;-51
2022/06/30 00:11:26;;;;;;;3.00;2.50;;;20.10;99.90;;;;;;5047996;28;20462;-50
2022/06/30 00:13:54;;;;;;;2.63;2.43;;;20.10;99.90;;;;;;5049530;28;20516;-51
2022/06/30 00:16:21;;;;;;;7.90;3.07;;;20.10;99.90;;;;;;5048770;28;20497;-51
2022/06/30 00:18:47;;;;;;;5.53;2.87;;;20.10;99.90;;;;;;5050422;28;20531;-51
2022/06/30 00:21:14;;;;;;;4.47;2.80;;;20.10;99.90;;;;;;5039262;28;20519;-52
2022/06/30 00:23:41;;;;;;;2.20;2.00;;;20.10;99.90;;;;;;5047738;28;20873;-51
2022/06/30 00:26:07;;;;;;;7.60;3.17;;;20.00;99.90;;;;;;5046811;28;20458;-52
2022/06/30 00:28:34;;;;;;;6.10;2.80;;;20.00;99.90;;;;;;5049343;28;20494;-52
2022/06/30 00:31:02;;;;;;;5.00;2.80;;;20.00;99.90;;;;;;5037701;28;20462;-52
2022/06/30 00:33:29;;;;;;;2.70;2.50;;;19.90;99.90;;;;;;5047581;28;20499;-52
2022/06/30 00:35:55;;;;;;;4.07;2.63;;;19.90;99.90;;;;;;5049842;28;20981;-52
2022/06/30 00:38:22;;;;;;;3.23;2.80;;;19.90;99.90;;;;;;5051085;28;20478;-52
2022/06/30 00:40:49;;;;;;;6.70;2.73;;;19.80;99.90;;;;;;5048764;28;20521;-52
2022/06/30 00:43:16;;;;;;;3.13;2.50;;;19.80;99.90;;;;;;5045894;28;20494;-51
2022/06/30 00:45:43;;;;;;;4.27;2.70;;;19.80;99.90;;;;;;5049196;28;20458;-51
2022/06/30 00:48:13;;;;;;;5.33;3.10;;;19.80;99.90;;;;;;5051899;28;20562;-51
2022/06/30 00:50:39;;;;;;;4.13;3.00;;;19.80;99.90;;;;;;5052398;28;20458;-51
2022/06/30 00:53:08;;;;;;;4.93;2.40;;;19.80;99.90;;;;;;5052234;28;20462;-52
2022/06/30 00:55:36;;;;;;;3.97;2.90;;;19.80;99.90;;;;;;5053918;28;20829;-52
2022/06/30 00:58:04;;;;;;;5.50;2.93;;;19.80;99.90;;;;;;5045552;28;20522;-51
2022/06/30 01:00:34;;;;;;;2.83;2.53;;;19.80;99.90;;;;;;5048940;28;20531;-50
2022/06/30 01:03:02;;;;;;;8.57;2.37;;;19.80;99.90;;;;;;5052434;28;20525;-51
2022/06/30 01:05:30;;;;;;;4.50;2.53;;;19.80;99.90;;;;;;5052661;28;20849;-53
2022/06/30 01:07:57;;;;;;;10.47;2.80;;;19.80;99.90;;;;;;5048493;28;20527;-51
2022/06/30 01:13:08;;;;;;;4.60;3.33;;;19.80;99.90;;;;;;5046115;28;20437;-52
2022/06/30 01:15:35;;;;;;;5.73;3.10;;;19.80;99.90;;;;;;5053025;28;20511;-52
2022/06/30 01:18:01;;;;;;;5.70;3.37;;;19.80;99.90;;;;;;5044333;28;20497;-52
2022/06/30 01:20:31;;;;;;;2.80;2.60;;;19.80;99.90;;;;;;5052200;28;20462;-52
2022/06/30 01:23:00;;;;;;;5.70;3.37;;;19.80;99.90;;;;;;5052702;28;20524;-52
2022/06/30 01:25:28;;;;;;;5.30;2.80;;;19.80;99.90;;;;;;5051112;28;20548;-52
2022/06/30 01:27:55;;;;;;;4.73;3.30;;;19.80;99.90;;;;;;5052210;28;20559;-58
2022/06/30 01:30:22;;;;;;;8.47;3.20;;;19.80;99.90;;;;;;5050004;28;20923;-53
2022/06/30 01:32:49;;;;;;;4.30;3.00;;;19.80;99.90;;;;;;5048528;28;20462;-52
2022/06/30 01:35:16;;;;;;;6.63;3.10;;;19.80;99.90;;;;;;5051362;28;20465;-51
2022/06/30 01:37:48;;;;;;;5.30;2.93;;;19.80;99.90;;;;;;5052896;28;20477;-52
2022/06/30 01:40:16;;;;;;;4.53;2.70;;;19.80;99.90;;;;;;5049181;28;20495;-52
2022/06/30 01:42:43;;;;;;;3.10;2.80;;;19.80;99.90;;;;;;5050100;28;20457;-52
2022/06/30 01:45:09;;;;;;;2.87;2.60;;;19.80;99.90;;;;;;5051823;28;20511;-52
2022/06/30 01:47:37;;;;;;;6.03;3.23;;;19.80;99.90;;;;;;5051862;28;20485;-52
2022/06/30 01:50:05;;;;;;;5.53;2.90;;;19.80;99.90;;;;;;5051598;28;20466;-52
2022/06/30 01:52:32;;;;;;;4.33;3.10;;;19.80;99.90;;;;;;5051849;28;20523;-52
2022/06/30 01:54:58;;;;;;;6.77;3.17;;;19.80;99.90;;;;;;5052899;28;20857;-54
2022/06/30 01:57:26;;;;;;;3.80;3.10;;;19.80;99.90;;;;;;5040843;28;20540;-52
2022/06/30 01:59:53;;;;;;;5.37;3.47;;;19.80;99.90;;;;;;5047570;28;20905;-52
2022/06/30 02:02:20;;;;;;;4.70;3.70;;;19.80;99.90;;;;;;5050181;28;20524;-52
2022/06/30 02:04:51;;;;;;;5.80;3.13;;;19.70;99.90;;;;;;5052375;28;20470;-54
2022/06/30 02:07:18;;;;;;;3.57;3.27;;;19.70;99.90;;;;;;5042756;28;20478;-53
2022/06/30 02:09:45;;;;;;;2.87;2.63;;;19.70;99.90;;;;;;5048136;28;20460;-54
2022/06/30 02:14:59;;;;;;;3.13;2.87;;;19.70;99.90;;;;;;5049909;28;20434;-53
2022/06/30 02:17:25;;;;;;;5.70;3.33;;;19.70;99.90;;;;;;5047545;28;20485;-53
2022/06/30 02:19:53;;;;;;;3.57;2.70;;;19.70;99.90;;;;;;5049009;28;20478;-53
2022/06/30 02:22:19;;;;;;;3.60;3.07;;;19.70;99.90;;;;;;5048516;28;20465;-51
2022/06/30 02:24:46;;;;;;;6.30;3.10;;;19.70;99.90;;;;;;5040809;28;20461;-54
2022/06/30 02:27:12;;;;;;;5.37;3.20;;;19.70;99.90;;;;;;5044134;28;20493;-53
2022/06/30 02:29:39;;;;;;;3.20;2.87;;;19.70;99.90;;;;;;5046705;28;20956;-52
2022/06/30 02:32:09;;;;;;;4.73;3.40;;;19.70;99.90;;;;;;5051864;28;20446;-52
2022/06/30 02:34:35;;;;;;;3.73;3.00;;;19.70;99.90;;;;;;5050595;28;20540;-52
2022/06/30 02:37:02;;;;;;;7.30;3.20;;;19.70;99.90;;;;;;5050979;28;20478;-53
2022/06/30 02:39:28;;;;;;;3.00;2.70;;;19.70;99.90;;;;;;5050075;28;20502;-53
2022/06/30 02:41:55;;;;;;;6.23;3.50;;;19.70;99.90;;;;;;5044515;28;20454;-52
2022/06/30 02:44:22;;;;;;;5.50;3.20;;;19.70;99.90;;;;;;5050463;28;20458;-53
2022/06/30 02:46:50;;;;;;;6.20;2.97;;;19.70;99.90;;;;;;5047931;28;20486;-53
2022/06/30 02:49:19;;;;;;;11.30;3.40;;;19.70;99.90;;;;;;5050188;28;20462;-52
2022/06/30 02:51:45;;;;;;;3.30;2.63;;;19.70;99.90;;;;;;5048839;28;20485;-52
2022/06/30 02:54:12;;;;;;;5.97;3.10;;;19.70;99.90;;;;;;5049433;28;20472;-53
2022/06/30 02:56:39;;;;;;;6.80;3.00;;;19.70;99.90;;;;;;5050833;28;20477;-52
2022/06/30 02:59:05;;;;;;;5.00;3.13;;;19.70;99.90;;;;;;5048183;28;20527;-52
2022/06/30 03:01:32;;;;;;;5.23;3.40;;;19.70;99.90;;;;;;5049584;28;20458;-52
2022/06/30 03:04:01;;;;;;;3.57;3.20;;;19.70;99.90;;;;;;5050691;28;20465;-51
2022/06/30 03:06:30;;;;;;;3.53;3.20;;;19.70;99.90;;;;;;5049812;28;20466;-53
2022/06/30 03:08:57;;;;;;;5.70;2.80;;;19.70;99.90;;;;;;5049969;28;20465;-51
2022/06/30 03:11:24;;;;;;;6.50;3.30;;;19.70;99.90;;;;;;5045139;28;21022;-57
2022/06/30 03:13:51;;;;;;;6.33;3.60;;;19.70;99.90;;;;;;5050389;28;20462;-51
2022/06/30 03:16:18;;;;;;;5.90;3.43;;;19.70;99.90;;;;;;5050658;28;20469;-52
2022/06/30 03:18:45;;;;;;;2.97;2.77;;;19.60;99.90;;;;;;5048141;28;20527;-52
2022/06/30 03:21:12;;;;;;;4.30;2.70;;;19.60;99.90;;;;;;5048172;28;20470;-51
2022/06/30 03:23:40;;;;;;;14.50;3.03;;;19.60;99.90;;;;;;5050320;28;20465;-51
2022/06/30 03:26:07;;;;;;;6.23;3.03;;;19.60;99.90;;;;;;5049842;28;20913;-52
2022/06/30 03:28:34;;;;;;;4.33;3.10;;;19.60;99.90;;;;;;5047391;28;21166;-51
2022/06/30 03:31:00;;;;;;;2.77;2.57;;;19.60;99.90;;;;;;5044769;28;20504;-52
2022/06/30 03:33:27;;;;;;;12.90;3.10;;;19.60;99.90;;;;;;5043411;28;20462;-51
2022/06/30 03:35:54;;;;;;;3.30;2.97;;;19.60;99.90;;;;;;5046233;28;20981;-53
2022/06/30 03:38:21;;;;;;;2.90;2.50;;;19.60;99.90;;;;;;5049041;28;20461;-51
2022/06/30 03:40:48;;;;;;;5.67;2.93;;;19.60;99.90;;;;;;5047442;28;20987;-52
2022/06/30 03:43:16;;;;;;;5.70;2.90;;;19.60;99.90;;;;;;5038581;28;20462;-52
2022/06/30 03:45:43;;;;;;;3.10;2.90;;;19.60;99.90;;;;;;5045965;28;20458;-51
2022/06/30 03:48:10;;;;;;;3.90;2.90;;;19.60;99.90;;;;;;5047126;28;20489;-51
2022/06/30 03:50:36;;;;;;;4.10;2.97;;;19.60;99.90;;;;;;5040875;28;20822;-53
2022/06/30 03:53:03;;;;;;;3.47;3.17;;;19.60;99.90;;;;;;5044526;28;20542;-53
2022/06/30 03:55:30;;;;;;;4.73;2.60;;;19.60;99.90;;;;;;5042161;28;20552;-51
2022/06/30 03:57:58;;;;;;;3.80;2.90;;;19.60;99.90;;;;;;5045853;28;20849;-51
2022/06/30 04:00:25;;;;;;;7.13;3.20;;;19.60;99.90;;;;;;5046797;28;20485;-52
2022/06/30 04:02:52;;;;;;;6.33;3.70;;;19.60;99.90;;;;;;5045150;28;20919;-51
2022/06/30 04:05:18;;;;;;;4.97;3.30;;;19.60;99.90;;;;;;5038733;28;20466;-52
2022/06/30 04:07:46;;;;;;;5.27;2.83;;;19.60;99.90;;;;;;5041070;28;20959;-54
2022/06/30 04:10:14;;;;;;;6.23;3.60;;;19.70;99.90;;;;;;5047116;28;20480;-53
2022/06/30 04:12:41;;;;;;;8.03;2.90;;;19.60;99.90;;;;;;5044750;28;20457;-52
2022/06/30 04:15:10;;;;;;;4.67;3.00;;;19.70;99.90;;;;;;5039347;28;20867;-52
2022/06/30 04:17:37;;;;;;;5.00;3.10;;;19.70;99.90;;;;;;5047791;28;21061;-52
2022/06/30 04:20:05;;;;;;;3.30;3.10;;;19.70;99.90;;;;;;5045503;28;21048;-53
2022/06/30 04:22:31;;;;;;;5.53;3.50;;;19.70;99.90;;;;;;5043442;28;20546;-52
2022/06/30 04:24:58;;;;;;;11.40;2.90;;;19.70;99.90;;;;;;5051583;28;20512;-53
2022/06/30 04:27:25;;;;;;;3.37;3.07;;;19.70;99.90;;;;;;5052687;28;20489;-52
2022/06/30 04:29:52;;;;;;;4.10;2.93;;;19.70;99.90;;;;;;5047095;28;20555;-52
2022/06/30 04:35:05;;;;;;;6.50;3.50;;;19.70;99.90;;;;;;5049805;28;20453;-54
2022/06/30 04:37:32;;;;;;;9.83;3.00;;;19.80;99.90;;;;;;5046516;28;20478;-52
2022/06/30 04:42:39;;;;;;;7.43;3.20;;;19.80;99.90;;;;;;5047976;28;20449;-54
2022/06/30 04:45:06;;;;;;;3.23;2.90;;;19.90;99.90;;;;;;5050634;28;20461;-54
2022/06/30 04:47:36;;;;;;;4.07;2.40;;;19.90;99.90;;;;;;5050086;28;20481;-54
2022/06/30 04:50:04;;;;;;;4.80;2.77;;;20.00;99.90;;;;;;5050914;28;20865;-54
2022/06/30 04:52:31;;;;;;;11.73;3.10;;;20.00;99.90;;;;;;5051934;28;20458;-53
2022/06/30 04:54:57;;;;;;;8.17;3.50;;;20.00;99.90;;;;;;5045708;28;20453;-55
2022/06/30 04:57:24;;;;;;;7.83;3.40;;;20.00;99.90;;;;;;5049486;28;20474;-53
2022/06/30 04:59:51;;;;;;;4.33;2.50;;;20.00;99.90;;;;;;5046790;28;21708;-54
2022/06/30 05:02:17;;;;;;;19.43;3.50;;;20.10;99.90;;;;;;5046871;28;20457;-52
2022/06/30 05:04:45;;;;;;;5.27;2.70;;;20.10;99.90;;;;;;5045310;28;20466;-55
2022/06/30 05:07:12;;;;;;;6.10;3.37;;;20.10;99.90;;;;;;5048088;28;20494;-53
2022/06/30 05:09:38;;;;;;;3.67;2.73;;;20.20;99.90;;;;;;5046600;28;20508;-53
2022/06/30 05:12:06;;;;;;;4.23;3.13;;;20.30;99.90;;;;;;5053089;28;20446;-53
2022/06/30 05:14:33;;;;;;;6.90;3.63;;;20.30;99.90;;;;;;5050805;28;20461;-52
2022/06/30 05:16:59;;;;;;;4.33;3.43;;;20.40;99.90;;;;;;5053745;28;20558;-53
2022/06/30 05:19:26;;;;;;;16.07;3.70;;;20.40;99.90;;;;;;5048390;28;22262;-53
2022/06/30 05:21:54;;;;;;;25.43;3.50;;;20.50;99.90;;;;;;5050754;28;20461;-54
2022/06/30 05:27:06;;;;;;;12.30;3.17;;;20.60;99.90;;;;;;5042538;28;21129;-52
2022/06/30 05:29:33;;;;;;;13.20;2.93;;;20.70;99.90;;;;;;5050032;28;20847;-54
2022/06/30 05:31:59;;;;;;;6.30;3.00;;;20.60;99.90;;;;;;5048671;28;20538;-53
2022/06/30 05:34:26;;;;;;;4.30;3.37;;;20.70;99.90;;;;;;5048466;28;20956;-52
2022/06/30 05:36:54;;;;;;;3.60;3.13;;;20.70;99.90;;;;;;5050071;28;20486;-54
2022/06/30 05:39:20;;;;;;;12.50;3.07;;;20.70;98.50;;;;;;5048325;28;21029;-52
2022/06/30 05:41:47;;;;;;;16.77;3.20;;;20.60;99.90;;;;;;5046282;28;20461;-54
2022/06/30 05:44:14;;;;;;;6.87;3.50;;;20.70;99.90;;;;;;5050732;28;20849;-53
2022/06/30 05:46:40;;;;;;;15.60;3.30;;;20.70;99.90;;;;;;5049992;28;21132;-53
2022/06/30 05:49:08;;;;;;;5.60;3.00;;;20.70;99.90;;;;;;5048143;28;20454;-54
2022/06/30 05:51:35;;;;;;;5.97;2.80;;;20.60;99.90;;;;;;5049896;28;20442;-53
2022/06/30 05:54:03;;;;;;;3.90;3.13;;;20.60;99.90;;;;;;5050298;28;20454;-52
2022/06/30 05:56:30;;;;;;;3.57;3.10;;;20.60;99.90;;;;;;5043375;28;20455;-52
2022/06/30 05:58:57;;;;;;;6.97;2.87;;;20.60;99.90;;;;;;5046696;28;20884;-53
2022/06/30 06:01:23;;;;;;;8.20;3.20;;;20.60;99.90;;;;;;5047530;28;20473;-52
2022/06/30 06:03:50;;;;;;;5.10;3.20;;;20.60;99.90;;;;;;5047894;28;20466;-52
2022/06/30 06:06:16;;;;;;;8.40;2.80;;;20.60;99.90;;;;;;5049815;28;20462;-53
2022/06/30 06:08:43;;;;;;;9.90;3.43;;;20.60;99.90;;;;;;5049773;28;20496;-51
2022/06/30 06:11:11;;;;;;;4.10;3.00;;;20.70;99.90;;;;;;5048006;28;20458;-54
2022/06/30 06:13:38;;;;;;;8.57;3.03;;;20.70;99.90;;;;;;5048914;28;20466;-53
2022/06/30 06:16:05;;;;;;;9.30;3.40;;;20.80;99.90;;;;;;5042279;28;20815;-52
2022/06/30 06:18:31;;;;;;;10.10;3.53;;;20.80;99.90;;;;;;5049733;28;20470;-56
2022/06/30 06:20:58;;;;;;;9.10;3.53;;;20.80;99.90;;;;;;5048734;28;21072;-53
2022/06/30 06:23:25;;;;;;;4.40;3.20;;;20.80;99.90;;;;;;5047013;28;20520;-56
2022/06/30 06:25:51;;;;;;;9.87;3.70;;;20.70;99.90;;;;;;5048460;28;20462;-53
2022/06/30 06:31:04;;;;;;;11.70;3.43;;;20.70;99.90;;;;;;5041673;28;20787;-52
2022/06/30 06:33:30;;;;;;;4.97;3.20;;;20.70;99.90;;;;;;5042308;28;20457;-53
2022/06/30 06:35:57;;;;;;;8.87;3.13;;;20.70;99.90;;;;;;5050782;28;20461;-54
2022/06/30 06:38:24;;;;;;;4.87;3.70;;;20.60;99.90;;;;;;5050993;28;20466;-52
2022/06/30 06:40:51;;;;;;;4.30;2.93;;;20.60;99.90;;;;;;5045996;28;20536;-52
2022/06/30 06:43:17;;;;;;;8.10;3.10;;;20.60;99.90;;;;;;5041112;28;20520;-51
2022/06/30 06:45:45;;;;;;;3.73;3.30;;;20.60;99.90;;;;;;5046299;28;20484;-53
2022/06/30 06:48:12;;;;;;;7.37;4.07;;;20.60;99.90;;;;;;5047515;28;20470;-52
2022/06/30 06:50:38;;;;;;;5.87;3.67;;;20.50;99.90;;;;;;5047349;28;20803;-53
2022/06/30 06:53:05;;;;;;;13.20;3.83;;;20.50;99.90;;;;;;5049546;28;20535;-53
2022/06/30 06:55:32;;;;;;;3.73;2.63;;;20.50;99.90;;;;;;5051161;28;20496;-52
2022/06/30 06:57:58;;;;;;;9.23;3.10;;;20.50;99.90;;;;;;5049378;28;20477;-52
2022/06/30 07:00:25;;;;;;;4.73;4.07;;;20.50;99.90;;;;;;5045698;28;20485;-53
2022/06/30 07:02:53;;;;;;;6.67;3.43;;;20.50;99.90;;;;;;5047796;28;20491;-51
2022/06/30 07:05:19;;;;;;;8.93;3.70;;;20.50;99.90;;;;;;5048668;28;20462;-52
2022/06/30 07:07:46;;;;;;;5.57;3.70;;;20.50;99.90;;;;;;5050782;28;20465;-53
2022/06/30 07:10:14;;;;;;;6.27;3.50;;;20.60;99.90;;;;;;5049353;28;20875;-54
2022/06/30 07:12:41;;;;;;;3.77;3.47;;;20.60;99.90;;;;;;5047676;28;20454;-52
2022/06/30 07:15:09;;;;;;;3.80;3.33;;;20.60;99.90;;;;;;5049497;28;20458;-52
2022/06/30 07:17:36;;;;;;;6.43;3.10;;;20.60;99.90;;;;;;5049286;28;21037;-52
2022/06/30 07:20:06;;;;;;;3.33;3.10;;;20.70;99.90;;;;;;5048131;28;20481;-54
2022/06/30 07:22:32;;;;;;;3.60;3.40;;;20.70;99.90;;;;;;5049969;28;20500;-54
2022/06/30 07:24:59;;;;;;;4.43;4.13;;;20.70;99.90;;;;;;5047321;28;20461;-52
2022/06/30 07:27:26;;;;;;;5.20;4.33;;;20.60;99.90;;;;;;5043658;28;20490;-52
2022/06/30 07:29:52;;;;;;;3.73;3.33;;;20.60;99.90;;;;;;5043376;28;20438;-52
2022/06/30 07:32:19;;;;;;;7.60;3.97;;;20.60;99.90;;;;;;5048556;28;20446;-52
2022/06/30 07:34:46;;;;;;;5.10;3.73;;;20.60;99.90;;;;;;5048642;28;20446;-53
2022/06/30 07:37:13;;;;;;;3.67;3.37;;;20.60;99.90;;;;;;5048152;28;20556;-52
2022/06/30 07:39:40;;;;;;;3.37;3.07;;;20.60;99.90;;;;;;5045887;28;20543;-52
2022/06/30 07:42:07;;;;;;;5.20;3.80;;;20.60;99.90;;;;;;5045438;28;20461;-54
2022/06/30 07:44:34;;;;;;;5.50;4.23;;;20.70;99.90;;;;;;5047241;28;20960;-51
2022/06/30 07:47:00;;;;;;;4.50;4.17;;;20.60;99.90;;;;;;5040891;28;20478;-53
2022/06/30 07:49:28;;;;;;;4.10;3.80;;;20.70;99.90;;;;;;5035172;28;20969;-53
2022/06/30 07:51:55;;;;;;;3.47;3.17;;;20.70;99.90;;;;;;5045025;28;20458;-52
2022/06/30 07:54:23;;;;;;;5.03;3.90;;;20.70;99.90;;;;;;5042976;28;20449;-52
2022/06/30 07:56:49;;;;;;;5.60;4.00;;;20.70;1.40;;;;;;5044488;28;21815;-53
2022/06/30 07:59:16;;;;;;;4.30;3.60;;;20.70;99.90;;;;;;5048028;28;20466;-53
2022/06/30 08:01:43;;;;;;;4.30;3.93;;;20.80;99.90;;;;;;5046068;28;20539;-52
2022/06/30 08:04:11;;;;;;;5.90;4.70;;;20.80;99.90;;;;;;5052438;28;20808;-52
2022/06/30 08:06:38;;;;;;;4.30;4.00;;;20.80;99.90;;;;;;5048349;28;21002;-52
2022/06/30 08:09:05;;;;;;;10.03;4.27;;;20.80;99.90;;;;;;5048832;28;20488;-51
2022/06/30 08:11:33;;;;;;;6.33;5.00;;;20.80;99.90;;;;;;5048540;28;20515;-56
2022/06/30 08:13:59;;;;;;;13.70;8.07;;;20.90;99.90;;;;;;5047412;28;20507;-52
2022/06/30 08:16:26;;;;;;;7.03;4.30;;;20.90;99.90;;;;;;5042491;28;20465;-52
2022/06/30 08:18:53;;;;;;;5.03;4.60;;;21.00;99.90;;;;;;5045843;28;20466;-53
2022/06/30 08:21:19;;;;;;;4.87;4.53;;;21.00;99.90;;;;;;5046099;28;20477;-52
2022/06/30 08:23:46;;;;;;;6.03;5.50;;;21.00;99.90;;;;;;5045158;28;20959;-52
2022/06/30 08:26:13;;;;;;;7.37;5.37;;;21.10;99.90;;;;;;5045047;28;20516;-51
2022/06/30 08:28:41;;;;;;;5.93;5.43;;;21.10;99.90;;;;;;5043553;28;20978;-53
2022/06/30 08:31:08;;;;;;;4.60;4.20;;;21.20;99.90;;;;;;5042970;28;20453;-52
2022/06/30 08:33:35;;;;;;;10.60;5.57;;;21.30;99.90;;;;;;5045892;28;20468;-52
2022/06/30 08:36:01;;;;;;;8.67;5.53;;;21.40;99.90;;;;;;5043061;28;20458;-52
2022/06/30 08:38:29;;;;;;;6.20;5.70;;;21.50;1.40;;;;;;5051455;28;20485;-51
2022/06/30 08:43:43;;;;;;;6.07;3.87;;;21.80;99.90;;;;;;5044202;28;20446;-53
2022/06/30 08:46:11;;;;;;;4.60;4.20;;;21.90;99.90;;;;;;5043614;28;20457;-52
2022/06/30 08:48:37;;;;;;;4.53;4.23;;;22.00;99.90;;;;;;5047889;28;20477;-52
2022/06/30 08:51:05;;;;;;;4.83;4.43;;;22.10;99.90;;;;;;5047979;28;20457;-52
2022/06/30 08:53:38;;;;;;;4.43;4.13;;;22.10;99.90;;;;;;5047202;28;20975;-52
2022/06/30 08:56:06;;;;;;;6.27;3.93;;;22.20;99.90;;;;;;5050913;28;20491;-52
2022/06/30 08:58:35;;;;;;;4.13;3.57;;;22.30;99.90;;;;;;5049444;28;20480;-53
2022/06/30 09:01:05;;;;;;;3.97;3.77;;;22.30;99.90;;;;;;5043381;28;20579;-52
2022/06/30 09:03:31;;;;;;;5.97;5.07;;;22.40;99.90;;;;;;5074935;22;20491;-53
2022/06/30 09:05:58;;;;;;;4.17;3.83;;;22.40;99.90;;;;;;5082626;28;20536;-53
2022/06/30 09:08:26;;;;;;;3.53;3.23;;;22.50;99.90;;;;;;5086710;28;20524;-53
2022/06/30 09:10:54;;;;;;;4.00;3.67;;;22.60;99.90;;;;;;5087608;28;20455;-54
2022/06/30 09:13:22;;;;;;;4.90;4.47;;;22.60;99.90;;;;;;5085630;28;20479;-53
2022/06/30 09:15:49;;;;;;;4.20;3.77;;;22.70;99.90;;;;;;5089171;28;20497;-52
2022/06/30 09:18:28;;;;;;;5.87;3.70;;;22.80;99.90;;;;;;5084931;28;20452;-53
2022/06/30 09:20:56;;;;;;;4.57;4.27;;;22.90;99.90;;;;;;5089292;28;20544;-53
2022/06/30 09:23:24;;;;;;;4.33;3.70;;;23.00;99.90;;;;;;5084792;28;20885;-53
2022/06/30 09:26:09;;;;;;;5.37;3.83;;;23.00;99.90;;;;;;5090484;28;21071;-53
2022/06/30 09:28:42;;;;;;;3.17;2.97;;;23.00;99.90;;;;;;5086663;28;20525;-54
2022/06/30 09:31:10;;;;;;;6.93;4.30;;;22.90;99.90;;;;;;5088139;28;20456;-54
2022/06/30 09:33:40;;;;;;;4.07;3.70;;;22.90;99.90;;;;;;5087713;28;20480;-53
2022/06/30 09:36:21;;;;;;;4.27;4.07;;;22.90;99.90;;;;;;5086839;28;20552;-53
2022/06/30 09:39:06;;;;;;;6.27;3.60;;;22.90;99.90;;;;;;5090344;28;20456;-52
2022/06/30 09:41:35;;;;;;;3.70;3.27;;;23.10;99.90;;;;;;5084853;28;20981;-53
2022/06/30 09:44:05;;;;;;;3.90;3.60;;;23.20;99.90;;;;;;5088043;28;20476;-52
2022/06/30 09:46:36;;;;;;;3.37;3.23;;;23.20;99.90;;;;;;5084190;28;20539;-52
2022/06/30 09:49:04;;;;;;;3.40;3.20;;;23.00;99.90;;;;;;5082804;28;20988;-52
2022/06/30 09:51:32;;;;;;;4.43;4.00;;;23.10;99.90;;;;;;5074947;28;20453;-52
2022/06/30 09:54:07;;;;;;;4.30;4.00;;;23.20;99.90;;;;;;5082291;28;20567;-52
2022/06/30 09:56:34;;;;;;;4.33;4.03;;;23.30;99.90;;;;;;5080732;28;20456;-53
2022/06/30 09:59:01;;;;;;;5.50;3.83;;;23.50;99.90;;;;;;5081070;28;20453;-52
2022/06/30 10:01:28;;;;;;;4.30;3.90;;;23.50;99.90;;;;;;5060440;28;20534;-52
2022/06/30 10:04:00;;;;;;;7.00;4.20;;;23.30;99.90;;;;;;5081257;28;20853;-53
2022/06/30 10:06:29;;;;;;;7.50;4.80;;;23.30;99.90;;;;;;5079806;28;20455;-53
2022/06/30 10:08:56;;;;;;;5.70;5.10;;;23.40;99.90;;;;;;5080542;28;20894;-52
2022/06/30 10:11:25;;;;;;;5.97;5.57;;;23.40;99.90;;;;;;5080609;28;20452;-53
2022/06/30 10:13:53;;;;;;;5.13;4.63;;;23.40;99.90;;;;;;5079488;28;20479;-52
2022/06/30 10:16:23;;;;;;;5.43;4.93;;;23.50;99.90;;;;;;5077616;28;20464;-52
2022/06/30 10:18:50;;;;;;;4.90;4.60;;;23.60;99.90;;;;;;5078928;28;20465;-53
2022/06/30 10:21:17;;;;;;;5.10;4.70;;;23.70;99.90;;;;;;5078521;28;20488;-53
2022/06/30 10:23:46;;;;;;;5.30;4.90;;;23.70;99.90;;;;;;5085515;28;20472;-53
2022/06/30 10:28:53;;;;;;;9.40;5.73;;;23.40;99.90;;;;;;5081667;28;20957;-53
2022/06/30 10:31:27;;;;;;;6.37;5.87;;;23.30;99.90;;;;;;5081032;28;20564;-53
2022/06/30 10:34:00;;;;;;;5.60;5.20;;;23.30;99.90;;;;;;5082216;28;20484;-52
2022/06/30 10:36:32;;;;;;;5.90;5.13;;;23.30;99.90;;;;;;5077658;28;20473;-52
2022/06/30 10:39:05;;;;;;;5.27;4.93;;;23.30;99.90;;;;;;5087341;28;20609;-53
2022/06/30 10:41:31;;;;;;;5.60;5.10;;;23.30;99.90;;;;;;5078844;28;20475;-52
2022/06/30 10:44:14;;;;;;;6.23;5.63;;;23.40;99.90;;;;;;5078853;28;20556;-52
2022/06/30 10:47:07;;;;;;;7.13;5.77;;;23.40;99.90;;;;;;5080164;28;20451;-53
2022/06/30 10:49:35;;;;;;;5.10;4.80;;;23.40;99.90;;;;;;5079546;28;20605;-52
2022/06/30 10:52:20;;;;;;;7.40;6.10;;;23.50;99.90;;;;;;5089202;28;20796;-53
2022/06/30 10:54:48;;;;;;;5.40;5.00;;;23.60;99.90;;;;;;5085195;28;20453;-53
2022/06/30 10:57:16;;;;;;;6.47;5.80;;;23.70;99.90;;;;;;5085531;28;20460;-53
2022/06/30 10:59:43;;;;;;;6.33;4.97;;;23.90;99.90;;;;;;5081956;28;20575;-53
2022/06/30 11:02:25;;;;;;;4.60;4.20;;;24.10;99.90;;;;;;5081055;28;20479;-53
2022/06/30 11:05:12;;;;;;;4.57;4.27;;;24.10;24.20;;;;;;5084047;28;20468;-53
2022/06/30 11:07:39;;;;;;;5.13;4.73;;;24.20;24.50;;;;;;5081749;28;20618;-53
2022/06/30 11:10:18;;;;;;;4.43;4.20;;;24.40;27.80;;;;;;5085426;28;20536;-52
2022/06/30 11:12:58;;;;;;;5.57;5.13;;;24.40;34.60;;;;;;5081701;28;20529;-52
2022/06/30 11:15:51;;;;;;;6.73;6.23;;;24.20;24.90;;;;;;5080786;28;20463;-53
2022/06/30 11:18:18;;;;;;;6.90;6.50;;;24.20;99.90;;;;;;5086732;28;20461;-53
2022/06/30 11:20:45;;;;;;;12.93;5.77;;;24.10;99.90;;;;;;5082638;28;20452;-53
2022/06/30 11:23:12;;;;;;;7.87;6.33;;;24.10;99.90;;;;;;5080601;28;20488;-52
2022/06/30 11:28:28;;;;;;;9.27;6.10;;;23.90;20.30;;;;;;5079916;28;20798;-53
2022/06/30 11:30:55;;;;;;;6.07;5.53;;;23.80;99.90;;;;;;5077634;28;20456;-53
2022/06/30 11:33:22;;;;;;;6.33;5.80;;;23.80;99.90;;;;;;5080511;28;20521;-52
2022/06/30 11:36:01;;;;;;;5.10;4.80;;;23.80;99.90;;;;;;5082902;28;20945;-52
2022/06/30 11:38:28;;;;;;;7.63;5.40;;;23.80;99.90;;;;;;5085313;28;20941;-53
2022/06/30 11:41:54;;;;;;;6.53;5.80;;;23.90;99.90;;;;;;5082114;28;20498;-53
2022/06/30 11:43:42;;;;;;;9.03;5.30;;;24.20;99.90;;;;;;5086556;28;20496;-53
2022/06/30 11:46:09;;;;;;;9.50;4.53;;;24.50;99.90;;;;;;5074532;28;20456;-53
2022/06/30 11:48:37;;;;;;;5.13;4.63;;;24.80;28.10;;;;;;5080589;28;20456;-52
2022/06/30 11:51:03;;;;;;;5.27;4.83;;;24.90;38.70;;;;;;5086996;28;20456;-53
2022/06/30 11:53:31;;;;;;;5.57;5.20;;;24.90;53.10;;;;;;5080721;28;20532;-52
2022/06/30 11:55:59;;;;;;;7.13;4.97;;;24.80;49.60;;;;;;5082920;28;20486;-53
2022/06/30 11:58:29;;;;;;;6.30;4.67;;;24.70;47.80;;;;;;5078684;28;20459;-52
2022/06/30 12:00:56;;;;;;;5.50;4.70;;;24.70;39.10;;;;;;5084637;28;20458;-53
2022/06/30 12:03:22;;;;;;;5.57;5.07;;;24.60;30.60;;;;;;5077944;28;20545;-53
2022/06/30 12:05:53;;;;;;;6.13;5.10;;;24.50;32.60;;;;;;5088521;28;20464;-52
2022/06/30 12:08:20;;;;;;;5.43;4.93;;;24.50;35.70;;;;;;5079524;28;21064;-54
2022/06/30 12:10:46;;;;;;;4.57;4.33;;;24.50;35.90;;;;;;5089156;28;20506;-53
2022/06/30 12:13:15;;;;;;;5.03;4.70;;;24.40;40.10;;;;;;5086592;28;20486;-52
2022/06/30 12:15:43;;;;;;;5.13;4.53;;;24.30;33.20;;;;;;5088487;28;20451;-53
2022/06/30 12:18:09;;;;;;;5.03;4.63;;;24.30;36.90;;;;;;5085811;28;20487;-54
2022/06/30 12:20:38;;;;;;;5.47;3.97;;;24.40;46.00;;;;;;5083343;28;20513;-53
2022/06/30 12:23:05;;;;;;;5.20;4.70;;;24.70;50.50;;;;;;5083369;28;20490;-53
2022/06/30 12:25:31;;;;;;;5.13;4.73;;;24.90;62.80;;;;;;5088714;28;20463;-53
2022/06/30 12:27:58;;;;;;;5.70;4.23;;;25.20;68.40;;;;;;5088966;28;20452;-54
2022/06/30 12:30:33;;;;;;;5.17;4.17;;;25.50;69.70;;;;;;5088034;28;20471;-53
2022/06/30 12:33:01;;;;;;;4.20;3.90;;;25.80;71.10;;;;;;5087375;28;20472;-53
2022/06/30 12:35:32;;;;;;;10.33;4.90;;;26.20;93.90;;;;;;5080839;28;20948;-52
2022/06/30 12:38:09;;;;;;;5.17;4.67;;;26.30;91.90;;;;;;5075979;28;20513;-54
2022/06/30 12:40:38;;;;;;;5.83;3.80;;;26.10;99.90;;;;;;5081385;28;20456;-53
2022/06/30 12:43:05;;;;;;;7.20;4.97;;;26.00;91.00;;;;;;5079987;28;20492;-53
2022/06/30 12:45:50;;;;;;;6.40;5.10;;;25.80;89.90;;;;;;5091196;28;20455;-53
2022/06/30 12:48:48;;;;;;;10.20;4.40;;;25.70;87.20;;;;;;5086896;28;21017;-53
2022/06/30 12:51:17;;;;;;;13.47;4.13;;;25.50;85.50;;;;;;5081362;28;20535;-53
2022/06/30 12:53:46;;;;;;;4.93;3.80;;;25.40;84.20;;;;;;5088307;28;20560;-53
2022/06/30 12:56:18;;;;;;;3.90;3.60;;;25.30;81.80;;;;;;5089181;28;20510;-54
2022/06/30 12:58:49;;;;;;;4.63;4.03;;;25.20;79.80;;;;;;5080702;28;20539;-53
2022/06/30 13:01:19;;;;;;;5.60;4.17;;;25.10;76.20;;;;;;5087718;28;20512;-52
2022/06/30 13:03:55;;;;;;;4.20;3.90;;;25.10;73.90;;;;;;5084193;28;20503;-52
2022/06/30 13:06:22;;;;;;;4.80;4.30;;;25.10;64.00;;;;;;5088225;28;20501;-52
2022/06/30 13:08:50;;;;;;;4.40;4.10;;;25.10;73.40;;;;;;5090691;28;20909;-53
2022/06/30 13:11:18;;;;;;;6.37;4.20;;;25.10;72.00;;;;;;5089118;28;20464;-54
2022/06/30 13:13:47;;;;;;;5.03;4.23;;;25.10;78.30;;;;;;5088841;28;20476;-52
2022/06/30 13:16:15;;;;;;;7.10;3.93;;;25.10;73.80;;;;;;5084995;28;20468;-53